Time;durP1;ratioP1;P1;durP2;ratioP2;P2;SDS_P1;SDS_P2;PMS_P1;PMS_P2;Temp;Humidity;BMP_temperature;BMP_pressure;BME280_temperature;BME280_humidity;BME280_pressure;Samples;Min_cycle;Max_cycle;Signal;HPM_P1;HPM_P2
2021/12/27 00:02:06;;;;;;;7.23;2.87;;;;;;;;;;5074109;28;20432;-66
2021/12/27 00:04:32;;;;;;;16.03;3.47;;;;;;;;;;5072571;28;21014;-67
2021/12/27 00:06:58;;;;;;;6.30;3.87;;;;;;;;;;5073001;28;20899;-67
2021/12/27 00:09:24;;;;;;;7.00;2.70;;;;;;;;;;5074966;28;20399;-67
2021/12/27 00:11:50;;;;;;;10.23;2.97;;;;;;;;;;5074439;28;20441;-67
2021/12/27 00:14:16;;;;;;;10.27;3.20;;;;;;;;;;5074634;28;20426;-68
2021/12/27 00:16:42;;;;;;;11.87;3.57;;;;;;;;;;5074678;28;20468;-66
2021/12/27 00:19:09;;;;;;;4.20;2.13;;;;;;;;;;5074461;28;20430;-67
2021/12/27 00:21:35;;;;;;;7.03;3.20;;;;;;;;;;5074315;28;20415;-68
2021/12/27 00:24:02;;;;;;;3.53;1.97;;;;;;;;;;5074386;28;20553;-68
2021/12/27 00:26:28;;;;;;;10.33;2.97;;;;;;;;;;5075975;28;20406;-68
2021/12/27 00:28:54;;;;;;;8.47;3.30;;;;;;;;;;5073693;28;20417;-68
2021/12/27 00:31:20;;;;;;;9.23;2.93;;;;;;;;;;5074037;28;20414;-68
2021/12/27 00:33:46;;;;;;;7.23;2.87;;;;;;;;;;5075492;28;20473;-68
2021/12/27 00:36:12;;;;;;;15.63;2.90;;;;;;;;;;5073522;28;20923;-68
2021/12/27 00:38:38;;;;;;;4.37;1.90;;;;;;;;;;5073887;28;20464;-68
2021/12/27 00:41:04;;;;;;;6.43;2.83;;;;;;;;;;5073816;28;20411;-68
2021/12/27 00:43:30;;;;;;;8.13;2.60;;;;;;;;;;5074147;28;20473;-68
2021/12/27 00:45:56;;;;;;;4.17;2.40;;;;;;;;;;5074130;28;20449;-68
2021/12/27 00:48:22;;;;;;;7.67;3.23;;;;;;;;;;5074178;28;20415;-68
2021/12/27 00:50:49;;;;;;;6.13;1.90;;;;;;;;;;5073765;28;20438;-68
2021/12/27 00:53:15;;;;;;;5.70;3.03;;;;;;;;;;5074072;28;20423;-68
2021/12/27 00:55:41;;;;;;;4.73;2.60;;;;;;;;;;5074127;28;20410;-68
2021/12/27 00:58:07;;;;;;;4.50;2.27;;;;;;;;;;5075456;28;20486;-68
2021/12/27 01:00:33;;;;;;;6.20;2.73;;;;;;;;;;5073626;28;20471;-67
2021/12/27 01:03:00;;;;;;;5.03;1.87;;;;;;;;;;5073680;28;20469;-67
2021/12/27 01:05:26;;;;;;;3.27;1.67;;;;;;;;;;5075359;28;20406;-68
2021/12/27 01:07:53;;;;;;;8.23;2.17;;;;;;;;;;5073847;28;20445;-68
2021/12/27 01:17:47;;;;;;;9.50;2.23;;;;;;;;;;5074978;28;20399;-68
2021/12/27 01:20:14;;;;;;;4.60;1.87;;;;;;;;;;5073221;28;20415;-67
2021/12/27 01:22:40;;;;;;;2.63;1.70;;;;;;;;;;5073419;28;20463;-68
2021/12/27 01:25:07;;;;;;;4.50;1.87;;;;;;;;;;5073228;28;20907;-68
2021/12/27 01:27:33;;;;;;;10.60;1.97;;;;;;;;;;5073201;28;20506;-69
2021/12/27 01:30:00;;;;;;;3.57;2.10;;;;;;;;;;5071079;28;20425;-68
2021/12/27 01:32:30;;;;;;;7.63;2.20;;;;;;;;;;5072406;28;20415;-67
2021/12/27 01:34:56;;;;;;;5.30;1.80;;;;;;;;;;5073520;28;20413;-68
2021/12/27 01:37:23;;;;;;;4.10;3.40;;;;;;;;;;5072258;28;20406;-68
2021/12/27 01:39:49;;;;;;;10.63;2.33;;;;;;;;;;5073603;28;20421;-68
2021/12/27 01:42:15;;;;;;;10.07;1.67;;;;;;;;;;5072034;28;20497;-68
2021/12/27 01:44:41;;;;;;;5.07;1.83;;;;;;;;;;5073089;28;20398;-68
2021/12/27 01:47:09;;;;;;;2.40;1.17;;;;;;;;;;5073154;28;20407;-68
2021/12/27 01:49:35;;;;;;;6.47;1.73;;;;;;;;;;5073054;28;20418;-68
2021/12/27 01:52:01;;;;;;;2.63;1.60;;;;;;;;;;5072699;28;20403;-68
2021/12/27 01:54:27;;;;;;;4.17;2.33;;;;;;;;;;5072924;28;20423;-68
2021/12/27 01:56:53;;;;;;;2.50;1.47;;;;;;;;;;5073008;28;20508;-67
2021/12/27 01:59:19;;;;;;;2.70;1.67;;;;;;;;;;5072901;28;20883;-67
2021/12/27 02:01:45;;;;;;;3.13;1.60;;;;;;;;;;5072496;28;20485;-68
2021/12/27 02:04:11;;;;;;;3.90;1.83;;;;;;;;;;5072680;28;20819;-68
2021/12/27 02:06:37;;;;;;;2.53;1.10;;;;;;;;;;5072743;28;20402;-68
2021/12/27 02:09:04;;;;;;;2.37;1.50;;;;;;;;;;5072762;28;20418;-68
2021/12/27 02:11:34;;;;;;;3.43;1.73;;;;;;;;;;5072415;28;20979;-68
2021/12/27 02:14:01;;;;;;;2.87;1.50;;;;;;;;;;5072460;28;20919;-68
2021/12/27 02:16:28;;;;;;;2.13;1.30;;;;;;;;;;5072625;28;20411;-69
2021/12/27 02:18:54;;;;;;;2.60;1.53;;;;;;;;;;5072453;28;20438;-68
2021/12/27 02:21:20;;;;;;;5.27;1.37;;;;;;;;;;5072137;28;20407;-68
2021/12/27 02:23:48;;;;;;;3.00;1.50;;;;;;;;;;5072423;28;20459;-67
2021/12/27 02:26:14;;;;;;;1.60;1.00;;;;;;;;;;5072516;28;20444;-67
2021/12/27 02:28:40;;;;;;;7.33;2.10;;;;;;;;;;5072468;28;20407;-67
2021/12/27 02:31:07;;;;;;;10.40;1.50;;;;;;;;;;5072025;28;20410;-68
2021/12/27 02:33:35;;;;;;;5.80;1.50;;;;;;;;;;5072392;28;20438;-69
2021/12/27 02:36:01;;;;;;;4.80;2.53;;;;;;;;;;5072468;28;20902;-69
2021/12/27 02:38:29;;;;;;;6.50;2.10;;;;;;;;;;5072444;28;20429;-68
2021/12/27 02:40:56;;;;;;;6.50;2.10;;;;;;;;;;5071943;28;20505;-67
2021/12/27 02:43:24;;;;;;;4.33;1.57;;;;;;;;;;5072149;28;20861;-68
2021/12/27 02:45:55;;;;;;;5.43;1.57;;;;;;;;;;5072310;28;20500;-69
2021/12/27 02:48:22;;;;;;;3.07;1.67;;;;;;;;;;5072213;28;20418;-69
2021/12/27 02:50:49;;;;;;;5.07;1.63;;;;;;;;;;5071793;28;20407;-69
2021/12/27 02:53:16;;;;;;;2.90;1.10;;;;;;;;;;5071095;28;20503;-67
2021/12/27 02:55:43;;;;;;;3.87;1.70;;;;;;;;;;5071979;28;20775;-67
2021/12/27 02:58:09;;;;;;;2.20;1.17;;;;;;;;;;5071998;28;20895;-68
2021/12/27 03:00:37;;;;;;;2.83;1.27;;;;;;;;;;5071613;28;20513;-67
2021/12/27 03:03:03;;;;;;;1.60;1.00;;;;;;;;;;5071634;28;20466;-68
2021/12/27 03:05:30;;;;;;;4.40;1.90;;;;;;;;;;5072041;28;20407;-68
2021/12/27 03:07:56;;;;;;;2.13;1.30;;;;;;;;;;5071907;28;20433;-68
2021/12/27 03:10:24;;;;;;;2.10;1.30;;;;;;;;;;5071627;28;20456;-67
2021/12/27 03:12:53;;;;;;;5.70;1.17;;;;;;;;;;5071856;28;20798;-68
2021/12/27 03:15:19;;;;;;;1.90;1.20;;;;;;;;;;5071975;28;20411;-68
2021/12/27 03:17:46;;;;;;;3.63;1.50;;;;;;;;;;5071677;28;20417;-67
2021/12/27 03:20:13;;;;;;;1.80;1.00;;;;;;;;;;5071402;28;20556;-68
2021/12/27 03:22:43;;;;;;;2.00;1.40;;;;;;;;;;5072749;28;20458;-69
2021/12/27 03:25:10;;;;;;;2.90;1.20;;;;;;;;;;5071793;28;20498;-68
2021/12/27 03:27:36;;;;;;;4.23;1.87;;;;;;;;;;5071804;28;20883;-69
2021/12/27 03:30:04;;;;;;;3.10;1.10;;;;;;;;;;5071292;28;20407;-68
2021/12/27 03:32:31;;;;;;;4.20;1.63;;;;;;;;;;5071730;28;20501;-69
2021/12/27 03:35:07;;;;;;;2.43;1.40;;;;;;;;;;5071861;28;20425;-68
2021/12/27 03:37:33;;;;;;;3.10;0.93;;;;;;;;;;5071733;28;20422;-69
2021/12/27 03:40:00;;;;;;;4.53;1.50;;;;;;;;;;5071067;28;20501;-68
2021/12/27 03:42:26;;;;;;;2.57;1.20;;;;;;;;;;5071457;28;20482;-68
2021/12/27 03:44:52;;;;;;;3.20;1.20;;;;;;;;;;5071638;28;20461;-69
2021/12/27 03:47:18;;;;;;;7.63;1.30;;;;;;;;;;5071603;28;20456;-68
2021/12/27 03:49:44;;;;;;;4.33;1.30;;;;;;;;;;5071521;28;20403;-67
2021/12/27 03:52:10;;;;;;;2.47;1.77;;;;;;;;;;5071146;28;20417;-68
2021/12/27 03:54:36;;;;;;;7.60;1.90;;;;;;;;;;5071460;28;20423;-67
2021/12/27 03:57:02;;;;;;;11.93;1.47;;;;;;;;;;5071394;28;20529;-68
2021/12/27 04:02:09;;;;;;;6.70;1.53;;;;;;;;;;5012197;28;20483;-83
2021/12/27 04:04:35;;;;;;;13.97;1.53;;;;;;;;;;5016335;28;20414;-84
2021/12/27 04:07:01;;;;;;;3.40;1.17;;;;;;;;;;5018757;28;20424;-83
2021/12/27 04:09:28;;;;;;;3.50;1.00;;;;;;;;;;5018939;28;20417;-83
2021/12/27 04:11:54;;;;;;;11.07;1.30;;;;;;;;;;5018991;28;20413;-83
2021/12/27 04:14:21;;;;;;;3.27;1.10;;;;;;;;;;5020332;28;20398;-83
2021/12/27 04:16:47;;;;;;;1.67;1.17;;;;;;;;;;5019428;28;20420;-83
2021/12/27 04:19:16;;;;;;;1.30;0.90;;;;;;;;;;5020917;28;20946;-83
2021/12/27 04:21:42;;;;;;;2.00;1.30;;;;;;;;;;5019518;28;20441;-83
2021/12/27 04:24:08;;;;;;;3.50;1.20;;;;;;;;;;5019135;28;20960;-83
2021/12/27 04:26:34;;;;;;;1.30;0.87;;;;;;;;;;5019797;28;20511;-83
2021/12/27 04:29:00;;;;;;;2.17;1.37;;;;;;;;;;5021215;28;20406;-83
2021/12/27 04:31:26;;;;;;;1.47;1.00;;;;;;;;;;5018411;28;20452;-83
2021/12/27 04:33:52;;;;;;;3.93;1.20;;;;;;;;;;5018910;28;20789;-83
2021/12/27 04:36:18;;;;;;;2.53;0.93;;;;;;;;;;5019457;28;20426;-83
2021/12/27 04:38:44;;;;;;;2.23;0.93;;;;;;;;;;5015297;28;20553;-84
2021/12/27 04:41:11;;;;;;;1.40;0.90;;;;;;;;;;5013046;28;20948;-84
2021/12/27 04:43:37;;;;;;;2.90;1.30;;;;;;;;;;5013408;28;20547;-84
2021/12/27 04:46:04;;;;;;;2.40;1.40;;;;;;;;;;5013439;28;20516;-84
2021/12/27 04:48:29;;;;;;;9.50;1.10;;;;;;;;;;5013706;28;20417;-84
2021/12/27 04:50:56;;;;;;;5.93;1.03;;;;;;;;;;5013121;28;20792;-83
2021/12/27 04:53:22;;;;;;;5.03;1.17;;;;;;;;;;5017308;28;20406;-84
2021/12/27 04:55:48;;;;;;;2.77;1.23;;;;;;;;;;5019796;28;20738;-84
2021/12/27 04:58:16;;;;;;;2.00;1.20;;;;;;;;;;5019584;28;20416;-84
2021/12/27 05:00:43;;;;;;;1.70;1.00;;;;;;;;;;5018498;28;20536;-84
2021/12/27 05:03:09;;;;;;;1.50;0.73;;;;;;;;;;5019156;28;20453;-84
2021/12/27 05:05:36;;;;;;;1.43;0.97;;;;;;;;;;5014241;28;20983;-85
2021/12/27 05:08:03;;;;;;;2.40;1.00;;;;;;;;;;5014785;28;20417;-84
2021/12/27 05:10:29;;;;;;;2.90;1.10;;;;;;;;;;5017308;28;20433;-83
2021/12/27 05:12:55;;;;;;;2.27;0.97;;;;;;;;;;5017792;28;20417;-81
2021/12/27 05:15:22;;;;;;;7.57;1.90;;;;;;;;;;5020051;28;20414;-84
2021/12/27 05:17:48;;;;;;;4.37;1.20;;;;;;;;;;5020466;28;20417;-84
2021/12/27 05:20:14;;;;;;;7.40;1.30;;;;;;;;;;5019535;28;20520;-83
2021/12/27 05:22:41;;;;;;;12.00;1.30;;;;;;;;;;5021877;28;21072;-83
2021/12/27 05:25:07;;;;;;;4.40;0.90;;;;;;;;;;5020662;28;20406;-83
2021/12/27 05:27:34;;;;;;;3.73;0.87;;;;;;;;;;5020056;28;20468;-83
2021/12/27 05:30:00;;;;;;;1.57;1.00;;;;;;;;;;5020815;28;20432;-84
2021/12/27 05:32:26;;;;;;;10.90;1.20;;;;;;;;;;5023479;28;20901;-84
2021/12/27 05:34:51;;;;;;;2.77;1.23;;;;;;;;;;5018195;28;20437;-84
2021/12/27 05:37:17;;;;;;;1.53;0.90;;;;;;;;;;5012902;28;20448;-84
2021/12/27 05:39:44;;;;;;;4.83;1.10;;;;;;;;;;5013252;28;20426;-83
2021/12/27 05:42:10;;;;;;;10.87;1.60;;;;;;;;;;5020633;28;20409;-84
2021/12/27 05:44:36;;;;;;;3.53;1.60;;;;;;;;;;5014644;28;20765;-83
2021/12/27 05:47:02;;;;;;;12.23;2.70;;;;;;;;;;5013644;28;20499;-84
2021/12/27 05:49:28;;;;;;;4.80;1.00;;;;;;;;;;5013052;28;20410;-84
2021/12/27 05:51:54;;;;;;;3.27;1.13;;;;;;;;;;5017191;28;20781;-83
2021/12/27 05:54:21;;;;;;;11.80;1.80;;;;;;;;;;5020209;28;20436;-83
2021/12/27 05:56:47;;;;;;;3.83;1.10;;;;;;;;;;5018762;28;20406;-83
2021/12/27 05:59:13;;;;;;;8.20;1.80;;;;;;;;;;5019786;28;20416;-83
2021/12/27 06:01:40;;;;;;;2.10;1.00;;;;;;;;;;5018332;28;20511;-83
2021/12/27 06:04:06;;;;;;;2.60;1.43;;;;;;;;;;5019002;28;20529;-83
2021/12/27 06:06:32;;;;;;;3.10;1.37;;;;;;;;;;5018927;28;20896;-84
2021/12/27 06:08:58;;;;;;;12.53;1.30;;;;;;;;;;5018442;28;20410;-83
2021/12/27 06:11:24;;;;;;;4.00;1.00;;;;;;;;;;5019450;28;20921;-83
2021/12/27 06:13:50;;;;;;;2.63;0.80;;;;;;;;;;5013600;28;20414;-83
2021/12/27 06:16:16;;;;;;;2.50;1.00;;;;;;;;;;5011440;28;20978;-84
2021/12/27 06:18:42;;;;;;;13.57;1.30;;;;;;;;;;5011332;28;20471;-83
2021/12/27 06:21:08;;;;;;;2.03;1.27;;;;;;;;;;5010862;28;20433;-83
2021/12/27 06:23:34;;;;;;;3.60;1.03;;;;;;;;;;5011149;28;20465;-83
2021/12/27 06:26:00;;;;;;;1.73;0.90;;;;;;;;;;5011423;28;20520;-84
2021/12/27 06:28:27;;;;;;;13.17;1.37;;;;;;;;;;5011218;28;20405;-84
2021/12/27 06:30:53;;;;;;;9.47;1.43;;;;;;;;;;5010880;28;20436;-85
2021/12/27 06:33:19;;;;;;;4.20;1.30;;;;;;;;;;5011328;28;20441;-83
2021/12/27 06:35:45;;;;;;;18.27;1.20;;;;;;;;;;5012740;28;20475;-84
2021/12/27 06:38:11;;;;;;;1.30;0.80;;;;;;;;;;5011027;28;20905;-84
2021/12/27 06:40:37;;;;;;;3.13;1.13;;;;;;;;;;5011880;28;20430;-84
2021/12/27 06:43:03;;;;;;;3.77;1.00;;;;;;;;;;5010781;28;20468;-84
2021/12/27 06:45:29;;;;;;;4.70;1.10;;;;;;;;;;5010925;28;20432;-84
2021/12/27 06:47:55;;;;;;;4.73;1.00;;;;;;;;;;5012194;28;20416;-84
2021/12/27 06:50:23;;;;;;;1.90;1.30;;;;;;;;;;5010711;28;20441;-84
2021/12/27 06:52:49;;;;;;;1.50;1.00;;;;;;;;;;5011081;28;20850;-84
2021/12/27 06:55:15;;;;;;;7.93;1.23;;;;;;;;;;5011437;28;20456;-84
2021/12/27 06:57:41;;;;;;;4.27;1.03;;;;;;;;;;5010780;28;20417;-84
2021/12/27 07:00:08;;;;;;;12.23;1.13;;;;;;;;;;5013716;28;20575;-83
2021/12/27 07:02:34;;;;;;;1.63;0.90;;;;;;;;;;5012976;28;20544;-83
2021/12/27 07:05:00;;;;;;;1.30;0.90;;;;;;;;;;5013293;28;20456;-84
2021/12/27 07:07:26;;;;;;;2.73;1.30;;;;;;;;;;5012452;28;20456;-83
2021/12/27 07:09:52;;;;;;;3.30;1.30;;;;;;;;;;5013994;28;20426;-84
2021/12/27 07:12:18;;;;;;;2.30;1.20;;;;;;;;;;5013551;28;20497;-83
2021/12/27 07:14:46;;;;;;;1.37;0.90;;;;;;;;;;5014623;28;20904;-83
2021/12/27 07:17:12;;;;;;;2.03;1.07;;;;;;;;;;5013240;28;20484;-83
2021/12/27 07:19:38;;;;;;;2.50;1.00;;;;;;;;;;5011522;28;20472;-85
2021/12/27 07:22:04;;;;;;;8.40;1.83;;;;;;;;;;5013382;28;20393;-85
2021/12/27 07:24:31;;;;;;;14.63;1.47;;;;;;;;;;5011965;28;20514;-84
2021/12/27 07:26:57;;;;;;;2.27;1.60;;;;;;;;;;5012919;28;20401;-85
2021/12/27 07:29:23;;;;;;;5.47;1.27;;;;;;;;;;5013117;28;20398;-84
2021/12/27 07:31:49;;;;;;;10.03;1.70;;;;;;;;;;5012378;28;20468;-84
2021/12/27 07:34:17;;;;;;;2.73;1.20;;;;;;;;;;5011480;28;20450;-85
2021/12/27 07:36:43;;;;;;;5.67;1.47;;;;;;;;;;5010539;28;20429;-85
2021/12/27 07:39:09;;;;;;;3.47;0.80;;;;;;;;;;5011695;28;20417;-84
2021/12/27 07:41:36;;;;;;;3.70;0.93;;;;;;;;;;5016082;28;20459;-85
2021/12/27 07:44:03;;;;;;;3.10;0.90;;;;;;;;;;5013537;28;20457;-86
2021/12/27 07:46:29;;;;;;;2.57;1.00;;;;;;;;;;5030512;28;20417;-85
2021/12/27 07:48:55;;;;;;;2.83;1.10;;;;;;;;;;5018506;28;20417;-84
2021/12/27 07:51:21;;;;;;;15.73;1.10;;;;;;;;;;5018447;28;20512;-84
2021/12/27 07:53:47;;;;;;;1.47;0.87;;;;;;;;;;5031894;28;20417;-85
2021/12/27 07:56:13;;;;;;;1.70;0.90;;;;;;;;;;5013680;28;20515;-85
2021/12/27 07:58:39;;;;;;;11.97;1.20;;;;;;;;;;5014633;28;20607;-85
2021/12/27 08:01:05;;;;;;;1.80;1.03;;;;;;;;;;5013199;28;20959;-86
2021/12/27 08:03:31;;;;;;;2.10;1.00;;;;;;;;;;5029078;28;21007;-84
2021/12/27 08:05:57;;;;;;;2.00;1.00;;;;;;;;;;5014227;28;20527;-84
2021/12/27 08:08:23;;;;;;;2.30;0.93;;;;;;;;;;5015927;28;20929;-82
2021/12/27 08:10:50;;;;;;;4.20;1.40;;;;;;;;;;5031405;28;20956;-81
2021/12/27 08:13:16;;;;;;;13.10;1.80;;;;;;;;;;5030814;28;20467;-81
2021/12/27 08:15:42;;;;;;;6.60;1.33;;;;;;;;;;5030226;28;21019;-81
2021/12/27 08:18:08;;;;;;;14.87;1.73;;;;;;;;;;5015530;28;20425;-82
2021/12/27 08:20:34;;;;;;;5.17;1.53;;;;;;;;;;5034841;28;20437;-81
2021/12/27 08:23:00;;;;;;;5.93;1.20;;;;;;;;;;5031097;28;20457;-81
2021/12/27 08:25:26;;;;;;;10.53;1.77;;;;;;;;;;4997969;28;20443;-82
2021/12/27 08:27:52;;;;;;;5.67;1.40;;;;;;;;;;4997851;28;20403;-82
2021/12/27 08:30:18;;;;;;;6.87;1.53;;;;;;;;;;5011956;28;21003;-82
2021/12/27 08:32:46;;;;;;;8.03;1.53;;;;;;;;;;4997181;28;20475;-81
2021/12/27 08:35:13;;;;;;;13.23;2.27;;;;;;;;;;5013235;28;20426;-82
2021/12/27 08:37:40;;;;;;;27.60;2.57;;;;;;;;;;5013097;28;20881;-83
2021/12/27 08:40:06;;;;;;;8.00;1.87;;;;;;;;;;4998217;28;20446;-83
2021/12/27 08:42:32;;;;;;;7.23;1.87;;;;;;;;;;5017522;28;20917;-83
2021/12/27 08:44:58;;;;;;;5.13;2.20;;;;;;;;;;5031982;28;20480;-82
2021/12/27 08:47:24;;;;;;;3.23;1.70;;;;;;;;;;5016630;28;20432;-82
2021/12/27 08:49:50;;;;;;;9.00;2.00;;;;;;;;;;5030927;28;20437;-83
2021/12/27 08:52:16;;;;;;;15.87;2.27;;;;;;;;;;5030376;28;20413;-84
2021/12/27 08:54:42;;;;;;;11.40;1.77;;;;;;;;;;5030714;28;20947;-83
2021/12/27 08:57:09;;;;;;;5.67;1.90;;;;;;;;;;5014328;28;20487;-83
2021/12/27 08:59:36;;;;;;;4.03;1.80;;;;;;;;;;5030886;28;20532;-83
2021/12/27 09:02:03;;;;;;;4.50;1.70;;;;;;;;;;5031368;28;20426;-83
2021/12/27 09:04:29;;;;;;;9.70;2.10;;;;;;;;;;5032993;28;20467;-83
2021/12/27 09:06:55;;;;;;;6.60;1.80;;;;;;;;;;5019626;28;20417;-82
2021/12/27 09:09:21;;;;;;;3.97;1.40;;;;;;;;;;5034546;28;20418;-82
2021/12/27 09:11:47;;;;;;;6.13;1.60;;;;;;;;;;5033855;28;21095;-82
2021/12/27 09:14:14;;;;;;;8.03;1.80;;;;;;;;;;5033337;28;20541;-82
2021/12/27 09:16:42;;;;;;;8.97;1.53;;;;;;;;;;5033106;28;20445;-82
2021/12/27 09:19:10;;;;;;;1.67;0.97;;;;;;;;;;5018255;28;20429;-82
2021/12/27 09:21:36;;;;;;;3.47;1.20;;;;;;;;;;5033218;28;20442;-82
2021/12/27 09:24:03;;;;;;;7.20;1.40;;;;;;;;;;5017693;28;20503;-86
2021/12/27 09:26:29;;;;;;;2.30;1.40;;;;;;;;;;5018408;28;20860;-84
2021/12/27 09:28:56;;;;;;;3.13;1.40;;;;;;;;;;5033518;28;20426;-85
2021/12/27 09:31:22;;;;;;;2.33;0.90;;;;;;;;;;5012055;28;20449;-85
2021/12/27 09:33:48;;;;;;;1.73;1.30;;;;;;;;;;5027007;28;20444;-85
2021/12/27 09:36:14;;;;;;;3.43;0.93;;;;;;;;;;5012857;28;20489;-86
2021/12/27 09:38:40;;;;;;;4.17;1.27;;;;;;;;;;5027262;28;20516;-86
2021/12/27 09:41:06;;;;;;;3.03;1.40;;;;;;;;;;5012183;28;20851;-85
2021/12/27 09:43:32;;;;;;;1.90;1.20;;;;;;;;;;5011470;28;20476;-85
2021/12/27 09:45:58;;;;;;;2.63;1.40;;;;;;;;;;5029231;28;20789;-84
2021/12/27 09:48:24;;;;;;;2.90;1.17;;;;;;;;;;5012817;28;20424;-84
2021/12/27 09:50:53;;;;;;;5.27;1.13;;;;;;;;;;5032602;28;20469;-82
2021/12/27 09:53:19;;;;;;;2.50;1.00;;;;;;;;;;5032583;28;20445;-82
2021/12/27 09:55:45;;;;;;;1.60;1.10;;;;;;;;;;5032109;28;20433;-82
2021/12/27 09:58:11;;;;;;;2.53;1.03;;;;;;;;;;5033556;28;20832;-82
2021/12/27 10:00:37;;;;;;;2.63;1.20;;;;;;;;;;5015994;28;20441;-83
2021/12/27 10:03:05;;;;;;;3.13;1.10;;;;;;;;;;5028056;28;20987;-82
2021/12/27 10:05:32;;;;;;;1.97;1.10;;;;;;;;;;5012748;28;20514;-82
2021/12/27 10:07:58;;;;;;;3.20;1.00;;;;;;;;;;5018776;28;20463;-82
2021/12/27 10:10:24;;;;;;;11.00;1.30;;;;;;;;;;5016490;28;20430;-82
2021/12/27 10:12:51;;;;;;;5.23;1.13;;;;;;;;;;5017460;28;20424;-82
2021/12/27 10:15:21;;;;;;;5.57;1.00;;;;;;;;;;5032330;28;20508;-82
2021/12/27 10:17:47;;;;;;;2.37;1.20;;;;;;;;;;5017771;28;20402;-82
2021/12/27 10:20:15;;;;;;;2.53;1.10;;;;;;;;;;5024975;28;20481;-82
2021/12/27 10:22:42;;;;;;;3.97;1.30;;;;;;;;;;4998835;28;20734;-82
2021/12/27 10:25:09;;;;;;;1.63;1.00;;;;;;;;;;5029816;28;20512;-82
2021/12/27 10:27:39;;;;;;;4.20;1.30;;;;;;;;;;5011336;28;20410;-82
2021/12/27 10:30:16;;;;;;;4.27;1.20;;;;;;;;;;5024557;28;20451;-82
2021/12/27 10:32:42;;;;;;;6.97;1.10;;;;;;;;;;5012768;28;20418;-82
2021/12/27 10:35:10;;;;;;;7.43;1.40;;;;;;;;;;5022957;28;20435;-83
2021/12/27 10:37:37;;;;;;;1.60;0.87;;;;;;;;;;5033110;28;20424;-83
2021/12/27 10:40:03;;;;;;;8.03;1.30;;;;;;;;;;5033439;28;20533;-83
2021/12/27 10:42:35;;;;;;;1.60;1.00;;;;;;;;;;5033293;28;20430;-83
2021/12/27 10:45:03;;;;;;;3.47;1.07;;;;;;;;;;5032992;28;20631;-83
2021/12/27 10:47:45;;;;;;;4.80;1.30;;;;;;;;;;5032135;28;20416;-83
2021/12/27 10:50:25;;;;;;;3.23;1.10;;;;;;;;;;5032427;28;20444;-82
2021/12/27 10:53:06;;;;;;;2.37;1.30;;;;;;;;;;5011666;28;20435;-83
2021/12/27 10:55:46;;;;;;;2.23;0.93;;;;;;;;;;4997911;28;20456;-83
2021/12/27 10:58:14;;;;;;;4.73;1.07;;;;;;;;;;5023421;28;20836;-83
2021/12/27 11:00:42;;;;;;;1.20;0.70;;;;;;;;;;5026258;28;20480;-82
2021/12/27 11:03:21;;;;;;;2.10;1.40;;;;;;;;;;5018866;28;21050;-82
2021/12/27 11:05:47;;;;;;;3.00;1.00;;;;;;;;;;5016769;28;20452;-82
2021/12/27 11:08:13;;;;;;;2.70;1.07;;;;;;;;;;5032486;28;20418;-82
2021/12/27 11:10:39;;;;;;;1.30;0.87;;;;;;;;;;5018623;28;20961;-83
2021/12/27 11:13:06;;;;;;;2.03;1.03;;;;;;;;;;4997759;28;20406;-83
2021/12/27 11:15:34;;;;;;;1.63;0.90;;;;;;;;;;5000942;28;20411;-83
2021/12/27 11:18:00;;;;;;;1.80;0.80;;;;;;;;;;5007921;28;20434;-82
2021/12/27 11:20:27;;;;;;;3.20;1.07;;;;;;;;;;5017038;28;20456;-82
2021/12/27 11:22:58;;;;;;;1.50;1.00;;;;;;;;;;5027385;28;20518;-83
2021/12/27 11:25:30;;;;;;;2.70;1.23;;;;;;;;;;5027677;28;20980;-83
2021/12/27 11:27:57;;;;;;;2.33;1.10;;;;;;;;;;5019877;28;20429;-83
2021/12/27 11:30:25;;;;;;;1.53;0.97;;;;;;;;;;5006916;28;20442;-83
2021/12/27 11:33:00;;;;;;;2.10;1.13;;;;;;;;;;5016396;28;20841;-83
2021/12/27 11:35:26;;;;;;;2.90;1.40;;;;;;;;;;5001866;28;20414;-83
2021/12/27 11:37:52;;;;;;;5.13;1.23;;;;;;;;;;5026902;28;20473;-82
2021/12/27 11:40:18;;;;;;;2.20;1.10;;;;;;;;;;5015037;28;20436;-82
2021/12/27 11:43:00;;;;;;;2.33;1.20;;;;;;;;;;5001441;28;20410;-82
2021/12/27 11:45:37;;;;;;;1.97;0.90;;;;;;;;;;5014776;28;20401;-83
2021/12/27 11:48:08;;;;;;;2.30;1.17;;;;;;;;;;5030646;28;20413;-83
2021/12/27 11:50:34;;;;;;;1.83;0.90;;;;;;;;;;5023925;28;20427;-83
2021/12/27 11:53:06;;;;;;;1.50;0.90;;;;;;;;;;5035707;28;20421;-82
2021/12/27 11:55:39;;;;;;;1.30;0.87;;;;;;;;;;5016449;28;20433;-82
2021/12/27 11:58:05;;;;;;;2.87;1.03;;;;;;;;;;5025802;28;20471;-83
2021/12/27 12:00:33;;;;;;;1.40;0.90;;;;;;;;;;5030276;28;20480;-82
2021/12/27 12:03:02;;;;;;;4.50;1.40;;;;;;;;;;5018230;28;20521;-82
2021/12/27 12:05:39;;;;;;;3.53;1.20;;;;;;;;;;5014431;28;20505;-82
2021/12/27 12:08:05;;;;;;;1.77;1.20;;;;;;;;;;4999985;28;20812;-82
2021/12/27 12:10:32;;;;;;;3.27;1.07;;;;;;;;;;4999206;28;20802;-83
2021/12/27 12:13:24;;;;;;;11.20;1.40;;;;;;;;;;5044659;28;20427;-83
2021/12/27 12:15:57;;;;;;;1.50;0.97;;;;;;;;;;4996933;28;20437;-82
2021/12/27 12:18:23;;;;;;;3.30;1.13;;;;;;;;;;5006799;28;20415;-82
2021/12/27 12:20:49;;;;;;;2.97;1.03;;;;;;;;;;5019652;28;20447;-82
2021/12/27 12:23:15;;;;;;;4.37;1.50;;;;;;;;;;5012437;28;20591;-81
2021/12/27 12:25:41;;;;;;;5.33;0.93;;;;;;;;;;5022842;28;20445;-81
2021/12/27 12:28:08;;;;;;;1.27;0.80;;;;;;;;;;5002012;28;20495;-81
2021/12/27 12:30:38;;;;;;;2.83;0.90;;;;;;;;;;5030972;28;20444;-82
2021/12/27 12:33:12;;;;;;;2.30;0.83;;;;;;;;;;5032949;28;20425;-82
2021/12/27 12:35:41;;;;;;;7.07;0.93;;;;;;;;;;5017306;28;20417;-81
2021/12/27 12:38:10;;;;;;;2.67;0.93;;;;;;;;;;5018231;28;20784;-83
2021/12/27 12:40:36;;;;;;;2.30;1.10;;;;;;;;;;5032415;28;20575;-81
2021/12/27 12:43:02;;;;;;;1.40;0.87;;;;;;;;;;5015063;28;20461;-81
2021/12/27 12:45:32;;;;;;;2.40;1.20;;;;;;;;;;5018561;28;20416;-81
2021/12/27 12:47:59;;;;;;;2.97;1.40;;;;;;;;;;5018280;28;20406;-81
2021/12/27 12:50:25;;;;;;;2.57;1.27;;;;;;;;;;5016237;28;20469;-81
2021/12/27 12:52:51;;;;;;;3.23;1.10;;;;;;;;;;5016824;28;20418;-81
2021/12/27 12:55:20;;;;;;;2.33;1.00;;;;;;;;;;5013760;28;20496;-81
2021/12/27 12:57:50;;;;;;;6.93;1.87;;;;;;;;;;4998980;28;20258;-81
2021/12/27 13:00:20;;;;;;;2.13;1.27;;;;;;;;;;4997930;28;20446;-81
2021/12/27 13:02:46;;;;;;;6.87;1.27;;;;;;;;;;5013695;28;20418;-82
2021/12/27 13:05:15;;;;;;;2.10;1.00;;;;;;;;;;5031710;28;20980;-82
2021/12/27 13:07:49;;;;;;;1.30;0.90;;;;;;;;;;5013599;28;20587;-81
2021/12/27 13:10:18;;;;;;;2.80;1.17;;;;;;;;;;5030658;28;20432;-81
2021/12/27 13:12:44;;;;;;;3.30;1.23;;;;;;;;;;5017861;28;20424;-81
2021/12/27 13:15:12;;;;;;;3.83;1.10;;;;;;;;;;5034080;28;20512;-82
2021/12/27 13:17:38;;;;;;;3.53;1.70;;;;;;;;;;5017212;28;20417;-81
2021/12/27 13:20:05;;;;;;;2.10;1.20;;;;;;;;;;5014106;28;20437;-80
2021/12/27 13:22:41;;;;;;;1.60;1.10;;;;;;;;;;5011363;28;20413;-81
2021/12/27 13:25:09;;;;;;;1.67;1.07;;;;;;;;;;5007380;28;20567;-82
2021/12/27 13:27:36;;;;;;;5.10;1.30;;;;;;;;;;5012496;28;20937;-81
2021/12/27 13:30:10;;;;;;;5.23;1.30;;;;;;;;;;5005496;28;20444;-86
2021/12/27 13:32:36;;;;;;;2.57;1.10;;;;;;;;;;5022793;28;20457;-81
2021/12/27 13:35:03;;;;;;;2.20;1.00;;;;;;;;;;5012844;28;20402;-81
2021/12/27 13:37:29;;;;;;;6.67;1.20;;;;;;;;;;5027492;28;20984;-81
2021/12/27 13:40:05;;;;;;;1.60;1.10;;;;;;;;;;5031790;28;20487;-81
2021/12/27 13:42:31;;;;;;;2.83;1.10;;;;;;;;;;5029589;28;20567;-81
2021/12/27 13:45:17;;;;;;;1.73;0.90;;;;;;;;;;5015658;28;20750;-81
2021/12/27 13:47:54;;;;;;;2.27;1.30;;;;;;;;;;5015999;28;20413;-81
2021/12/27 13:50:27;;;;;;;1.20;0.90;;;;;;;;;;5030907;28;20524;-81
2021/12/27 13:52:54;;;;;;;1.67;0.80;;;;;;;;;;5030977;28;20417;-81
2021/12/27 13:55:21;;;;;;;2.00;1.13;;;;;;;;;;5016223;28;20923;-81
2021/12/27 13:57:47;;;;;;;1.70;1.00;;;;;;;;;;5015867;28;20765;-81
2021/12/27 14:00:14;;;;;;;2.13;1.40;;;;;;;;;;5021021;28;20457;-82
2021/12/27 14:02:43;;;;;;;1.70;1.00;;;;;;;;;;4995061;28;20825;-81
2021/12/27 14:05:10;;;;;;;3.13;1.10;;;;;;;;;;5010944;28;20461;-81
2021/12/27 14:07:36;;;;;;;2.83;1.40;;;;;;;;;;4995345;28;20468;-81
2021/12/27 14:10:02;;;;;;;2.30;1.07;;;;;;;;;;5010911;28;21053;-81
2021/12/27 14:12:30;;;;;;;1.73;0.90;;;;;;;;;;4995474;28;20468;-80
2021/12/27 14:15:04;;;;;;;1.50;0.93;;;;;;;;;;4996063;28;20410;-81
2021/12/27 14:17:33;;;;;;;2.30;1.17;;;;;;;;;;5010240;28;20411;-81
2021/12/27 14:20:02;;;;;;;1.83;1.00;;;;;;;;;;4994071;28;20434;-81
2021/12/27 14:22:37;;;;;;;2.17;1.00;;;;;;;;;;4995146;28;20414;-82
2021/12/27 14:25:05;;;;;;;1.60;0.97;;;;;;;;;;5014011;28;20440;-81
2021/12/27 14:27:36;;;;;;;1.83;1.00;;;;;;;;;;5015353;28;20456;-80
2021/12/27 14:30:07;;;;;;;1.83;1.07;;;;;;;;;;5014563;28;20421;-81
2021/12/27 14:32:34;;;;;;;2.03;1.40;;;;;;;;;;5014491;28;20452;-81
2021/12/27 14:35:00;;;;;;;5.53;1.10;;;;;;;;;;5031122;28;20428;-81
2021/12/27 14:37:27;;;;;;;1.63;1.00;;;;;;;;;;5018987;28;20406;-81
2021/12/27 14:39:53;;;;;;;2.17;1.10;;;;;;;;;;5039499;28;20975;-81
2021/12/27 14:42:21;;;;;;;1.70;0.80;;;;;;;;;;5015571;28;20448;-81
2021/12/27 14:44:51;;;;;;;1.73;1.00;;;;;;;;;;5030337;28;20465;-81
2021/12/27 14:47:19;;;;;;;2.20;1.13;;;;;;;;;;5015841;28;20759;-81
2021/12/27 14:49:45;;;;;;;2.97;1.10;;;;;;;;;;5014705;28;20793;-81
2021/12/27 14:52:12;;;;;;;1.30;0.97;;;;;;;;;;5014201;28;20413;-81